Time;durP1;ratioP1;P1;durP2;ratioP2;P2;SDS_P1;SDS_P2;PMS_P1;PMS_P2;Temp;Humidity;BMP_temperature;BMP_pressure;BME280_temperature;BME280_humidity;BME280_pressure;Samples;Min_cycle;Max_cycle;Signal;HPM_P1;HPM_P2
2023/06/15 00:00:44;;;;;;;7.32;4.53;;;15.90;71.40;;;;;;4978266;28;86580;-80
2023/06/15 00:03:10;;;;;;;6.28;4.05;;;15.90;71.20;;;;;;4979044;28;86356;-84
2023/06/15 00:05:36;;;;;;;4.63;3.85;;;15.90;70.90;;;;;;4978686;28;86356;-83
2023/06/15 00:08:02;;;;;;;6.10;3.65;;;15.80;71.20;;;;;;4980010;28;87931;-83
2023/06/15 00:10:28;;;;;;;7.55;4.22;;;15.80;71.00;;;;;;4978867;28;86841;-83
2023/06/15 00:12:53;;;;;;;9.82;4.43;;;15.80;71.70;;;;;;4979342;28;86395;-79
2023/06/15 00:15:19;;;;;;;6.70;3.95;;;15.80;72.70;;;;;;4979226;28;86636;-83
2023/06/15 00:17:46;;;;;;;5.10;3.85;;;15.70;70.90;;;;;;4978951;28;88467;-81
2023/06/15 00:20:12;;;;;;;8.35;4.57;;;15.70;70.80;;;;;;4977675;28;89657;-83
2023/06/15 00:22:41;;;;;;;6.57;3.83;;;15.70;71.60;;;;;;4979602;28;86359;-82
2023/06/15 00:25:07;;;;;;;8.05;4.53;;;15.60;71.40;;;;;;5000819;28;89961;-83
2023/06/15 00:27:35;;;;;;;6.82;4.38;;;15.60;71.60;;;;;;4978497;28;87566;-82
2023/06/15 00:30:01;;;;;;;5.22;3.72;;;15.60;71.60;;;;;;4978623;28;86311;-84
2023/06/15 00:32:26;;;;;;;9.80;3.95;;;15.60;71.10;;;;;;4978848;28;86896;-82
2023/06/15 00:34:52;;;;;;;5.45;3.97;;;15.50;71.70;;;;;;4980060;28;86247;-81
2023/06/15 00:37:18;;;;;;;6.40;4.15;;;15.50;73.30;;;;;;4978914;28;87446;-82
2023/06/15 00:39:43;;;;;;;5.38;3.70;;;15.50;72.30;;;;;;4978609;28;86896;-83
2023/06/15 00:42:09;;;;;;;5.05;3.90;;;15.40;72.20;;;;;;4970324;28;90463;-83
2023/06/15 00:44:35;;;;;;;6.32;3.65;;;15.40;72.00;;;;;;4958023;28;86369;-82
2023/06/15 00:47:02;;;;;;;7.20;4.00;;;15.40;72.20;;;;;;4959959;28;87524;-79
2023/06/15 00:49:28;;;;;;;7.53;3.92;;;15.30;73.50;;;;;;4959206;28;86624;-83
2023/06/15 00:51:54;;;;;;;5.25;4.03;;;15.30;73.00;;;;;;4958846;28;86303;-81
2023/06/15 00:54:23;;;;;;;8.63;5.20;;;15.20;74.10;;;;;;4953976;28;86092;-83
2023/06/15 00:56:50;;;;;;;8.18;4.22;;;15.20;75.10;;;;;;4960118;28;87299;-82
2023/06/15 00:59:17;;;;;;;6.82;4.38;;;15.10;74.50;;;;;;4958513;28;86531;-82
2023/06/15 01:01:44;;;;;;;5.43;4.60;;;15.00;74.90;;;;;;4959716;28;86353;-83
2023/06/15 01:04:11;;;;;;;7.70;4.28;;;14.90;75.30;;;;;;4959446;28;86216;-80
2023/06/15 01:06:41;;;;;;;6.20;4.72;;;14.90;75.70;;;;;;4958876;28;87877;-81
2023/06/15 01:09:09;;;;;;;4.35;3.80;;;14.90;76.10;;;;;;4958563;28;86576;-82
2023/06/15 01:11:35;;;;;;;5.88;4.50;;;14.80;75.50;;;;;;4959567;28;86426;-81
2023/06/15 01:14:03;;;;;;;4.47;4.07;;;14.80;76.70;;;;;;4960163;28;86397;-81
2023/06/15 01:16:37;;;;;;;7.85;4.13;;;14.80;75.70;;;;;;4959669;28;86405;-78
2023/06/15 01:19:09;;;;;;;6.00;4.40;;;14.70;76.00;;;;;;4961254;28;87063;-80
2023/06/15 01:21:37;;;;;;;8.18;4.40;;;14.70;77.10;;;;;;4962536;28;86471;-78
2023/06/15 01:24:24;;;;;;;5.22;4.30;;;14.60;78.00;;;;;;4961028;28;86404;-81
2023/06/15 01:26:50;;;;;;;8.43;4.32;;;14.60;77.60;;;;;;4968811;28;87526;-79
2023/06/15 01:29:19;;;;;;;5.63;3.55;;;14.50;78.10;;;;;;4970496;28;87710;-78
2023/06/15 01:31:46;;;;;;;5.25;4.22;;;14.50;78.00;;;;;;4970304;28;86727;-78
2023/06/15 01:34:12;;;;;;;7.18;4.85;;;14.40;79.00;;;;;;4971051;28;86355;-79
2023/06/15 01:36:37;;;;;;;8.98;4.18;;;14.30;78.90;;;;;;4969139;28;87657;-79
2023/06/15 01:39:03;;;;;;;8.05;4.90;;;14.30;78.70;;;;;;4970955;28;86873;-80
2023/06/15 01:41:31;;;;;;;14.68;4.88;;;14.20;79.20;;;;;;4968818;28;86435;-79
2023/06/15 01:43:59;;;;;;;7.95;4.78;;;14.20;79.50;;;;;;4970168;28;85904;-80
2023/06/15 01:46:26;;;;;;;6.57;4.40;;;14.20;79.20;;;;;;4967774;28;88099;-78
2023/06/15 01:48:53;;;;;;;6.32;4.45;;;14.10;80.40;;;;;;4968046;28;87344;-78
2023/06/15 01:51:20;;;;;;;7.13;4.07;;;14.10;80.60;;;;;;4972287;28;87381;-79
2023/06/15 01:53:46;;;;;;;5.95;4.47;;;14.00;80.80;;;;;;4972338;28;86692;-78
2023/06/15 01:56:13;;;;;;;6.03;4.40;;;14.00;81.00;;;;;;4968065;28;86659;-79
2023/06/15 01:58:39;;;;;;;10.27;5.07;;;13.90;81.00;;;;;;4971856;28;85803;-79
2023/06/15 02:01:05;;;;;;;5.50;4.60;;;13.90;81.20;;;;;;4971637;28;86751;-79
2023/06/15 02:03:31;;;;;;;5.82;4.10;;;13.90;80.70;;;;;;4973138;28;86340;-78
2023/06/15 02:05:57;;;;;;;8.23;4.90;;;13.80;79.80;;;;;;4971481;28;87122;-80
2023/06/15 02:08:22;;;;;;;8.05;4.32;;;13.90;79.60;;;;;;4974335;28;86432;-78
2023/06/15 02:10:48;;;;;;;8.10;5.15;;;13.80;80.20;;;;;;4971518;28;85975;-79
2023/06/15 02:13:13;;;;;;;7.45;4.68;;;13.80;80.80;;;;;;4968691;28;86440;-78
2023/06/15 02:15:39;;;;;;;5.07;4.57;;;13.80;81.60;;;;;;4969189;28;87507;-80
2023/06/15 02:18:11;;;;;;;5.88;4.65;;;13.80;82.30;;;;;;4969265;28;86291;-78
2023/06/15 02:20:41;;;;;;;5.18;3.88;;;13.70;81.00;;;;;;4970756;28;86156;-78
2023/06/15 02:23:07;;;;;;;7.72;5.00;;;13.70;80.40;;;;;;4972998;28;86259;-80
2023/06/15 02:25:33;;;;;;;6.15;4.97;;;13.70;83.20;;;;;;4972646;28;86334;-78
2023/06/15 02:27:59;;;;;;;6.60;5.22;;;13.60;83.40;;;;;;4973027;28;86036;-78
2023/06/15 02:30:26;;;;;;;6.72;5.35;;;13.50;83.10;;;;;;4972168;28;85788;-79
2023/06/15 02:32:53;;;;;;;8.35;4.90;;;13.50;83.90;;;;;;4972127;28;86419;-78
2023/06/15 02:35:19;;;;;;;7.45;4.43;;;13.50;82.20;;;;;;4970396;28;86136;-79
2023/06/15 02:37:45;;;;;;;4.70;3.83;;;13.50;84.00;;;;;;4972174;28;86522;-80
2023/06/15 02:40:11;;;;;;;7.65;5.30;;;13.40;83.00;;;;;;4970874;28;85683;-78
2023/06/15 02:42:38;;;;;;;7.78;4.70;;;13.40;84.90;;;;;;4970434;28;86362;-78
2023/06/15 02:45:06;;;;;;;7.35;5.00;;;13.30;83.50;;;;;;4969230;28;86306;-80
2023/06/15 02:47:33;;;;;;;8.32;5.07;;;13.30;84.90;;;;;;4968073;28;86760;-79
2023/06/15 02:49:59;;;;;;;5.28;4.32;;;13.30;85.10;;;;;;4971102;28;86099;-78
2023/06/15 02:52:30;;;;;;;5.65;4.05;;;13.20;85.00;;;;;;4973008;28;85936;-78
2023/06/15 02:54:59;;;;;;;8.23;4.60;;;13.20;84.60;;;;;;4972887;28;86340;-79
2023/06/15 02:57:25;;;;;;;7.75;4.85;;;13.20;85.50;;;;;;4971987;28;85686;-82
2023/06/15 02:59:51;;;;;;;9.40;5.57;;;13.10;85.40;;;;;;4972299;28;86188;-79
2023/06/15 03:02:16;;;;;;;7.53;5.03;;;13.10;86.50;;;;;;4972986;28;85763;-78
2023/06/15 03:04:47;;;;;;;7.50;5.20;;;13.00;86.90;;;;;;4975127;28;86629;-78
2023/06/15 03:07:16;;;;;;;9.50;5.25;;;13.00;86.40;;;;;;4973332;28;86714;-79
2023/06/15 03:09:52;;;;;;;5.63;5.10;;;12.90;86.60;;;;;;4971992;28;85904;-80
2023/06/15 03:12:18;;;;;;;10.38;5.75;;;12.90;87.30;;;;;;4968451;28;86131;-79
2023/06/15 03:14:44;;;;;;;6.70;5.45;;;12.90;88.60;;;;;;4968815;28;87115;-78
2023/06/15 03:17:12;;;;;;;6.93;4.70;;;12.80;88.70;;;;;;4974637;28;85784;-79
2023/06/15 03:19:39;;;;;;;6.25;5.28;;;12.80;87.90;;;;;;4975147;28;85621;-78
2023/06/15 03:22:07;;;;;;;5.15;4.65;;;12.80;89.00;;;;;;4974398;28;86172;-81
2023/06/15 03:24:33;;;;;;;9.25;5.15;;;12.80;88.00;;;;;;4973983;28;86475;-78
2023/06/15 03:27:01;;;;;;;6.13;4.95;;;12.70;88.20;;;;;;4973544;28;86905;-78
2023/06/15 03:29:29;;;;;;;9.32;5.18;;;12.70;87.30;;;;;;4974659;28;85919;-78
2023/06/15 03:31:55;;;;;;;7.13;5.40;;;12.70;88.50;;;;;;4965748;28;86120;-78
2023/06/15 03:34:21;;;;;;;8.40;5.53;;;12.70;89.00;;;;;;4974243;28;86992;-78
2023/06/15 03:36:47;;;;;;;8.45;5.18;;;12.70;89.30;;;;;;4972779;28;86073;-78
2023/06/15 03:39:13;;;;;;;8.98;5.38;;;12.60;89.20;;;;;;4972867;28;86132;-79
2023/06/15 03:41:39;;;;;;;12.98;5.55;;;12.60;89.20;;;;;;4971433;28;85781;-77
2023/06/15 03:44:05;;;;;;;8.82;5.88;;;12.60;89.80;;;;;;4971722;28;86383;-76
2023/06/15 03:46:30;;;;;;;8.30;5.97;;;12.60;90.10;;;;;;4973259;28;86624;-80
2023/06/15 03:48:56;;;;;;;14.25;5.88;;;12.50;90.20;;;;;;4974008;28;86669;-78
2023/06/15 03:51:21;;;;;;;8.88;6.68;;;12.50;90.10;;;;;;4971622;28;85755;-79
2023/06/15 03:53:47;;;;;;;9.18;5.43;;;12.50;90.30;;;;;;4973374;28;87402;-78
2023/06/15 03:56:13;;;;;;;10.20;5.85;;;12.50;89.40;;;;;;4973496;28;86012;-78
2023/06/15 03:58:38;;;;;;;8.75;5.63;;;12.60;90.00;;;;;;4974335;28;85819;-78
2023/06/15 04:01:07;;;;;;;11.75;6.35;;;12.60;89.80;;;;;;4990320;28;94837;-78
2023/06/15 04:03:36;;;;;;;10.45;6.38;;;12.60;90.70;;;;;;4995061;28;86900;-77
2023/06/15 04:06:04;;;;;;;12.15;6.43;;;12.60;90.80;;;;;;5032536;22;87012;-84
2023/06/15 04:09:16;;;;;;;9.35;5.90;;;12.60;90.20;;;;;;4951410;28;86091;-87
2023/06/15 04:12:17;;;;;;;7.90;5.82;;;12.60;90.00;;;;;;4909755;28;85617;-85
2023/06/15 04:15:20;;;;;;;9.75;5.93;;;12.70;90.20;;;;;;4899708;28;87105;-86
2023/06/15 04:17:48;;;;;;;9.13;6.53;;;12.80;90.30;;;;;;4902009;28;86647;-86
2023/06/15 04:20:25;;;;;;;9.10;5.80;;;12.80;89.30;;;;;;4888622;28;85922;-86
2023/06/15 04:23:20;;;;;;;14.65;6.43;;;12.90;89.30;;;;;;4973926;28;85115;-86
2023/06/15 04:25:50;;;;;;;11.93;6.47;;;13.00;90.30;;;;;;4988205;28;85977;-85
2023/06/15 04:28:49;;;;;;;6.25;5.55;;;13.00;90.60;;;;;;4995565;28;86297;-86
2023/06/15 04:31:33;;;;;;;8.77;6.28;;;13.00;89.80;;;;;;4980378;28;85629;-85
2023/06/15 04:34:04;;;;;;;10.73;6.18;;;13.10;90.50;;;;;;4970344;28;86078;-86
2023/06/15 04:36:34;;;;;;;7.57;6.50;;;13.10;90.40;;;;;;5076518;22;87187;-80
2023/06/15 04:39:00;;;;;;;7.95;6.03;;;13.20;90.50;;;;;;4989875;28;86836;-79
2023/06/15 04:41:29;;;;;;;10.52;6.63;;;13.20;89.40;;;;;;4989457;28;86528;-78
2023/06/15 04:43:55;;;;;;;13.32;7.15;;;13.30;90.50;;;;;;4990656;28;86203;-78
2023/06/15 04:46:21;;;;;;;10.15;7.10;;;13.40;90.40;;;;;;4989715;28;88947;-79
2023/06/15 04:48:47;;;;;;;11.38;6.85;;;13.40;90.70;;;;;;4991282;28;85911;-80
2023/06/15 04:51:13;;;;;;;11.70;6.95;;;13.50;90.70;;;;;;4991162;28;85511;-78
2023/06/15 04:53:42;;;;;;;9.65;7.03;;;13.60;90.40;;;;;;4991285;28;93884;-78
2023/06/15 04:56:08;;;;;;;8.13;6.82;;;13.70;90.10;;;;;;4999069;28;86160;-78
2023/06/15 04:58:34;;;;;;;9.50;7.60;;;13.80;90.20;;;;;;4999988;28;86283;-79
2023/06/15 05:01:01;;;;;;;9.88;7.00;;;13.90;90.10;;;;;;4998372;28;85617;-78
2023/06/15 05:03:27;;;;;;;10.15;6.78;;;14.00;90.20;;;;;;4997770;28;86581;-79
2023/06/15 05:05:53;;;;;;;14.75;7.35;;;14.10;89.30;;;;;;5000696;28;87052;-79
2023/06/15 05:08:18;;;;;;;12.55;7.90;;;14.20;89.00;;;;;;4993922;22;86463;-80
2023/06/15 05:10:44;;;;;;;14.60;7.95;;;14.30;88.50;;;;;;4969663;28;85767;-80
2023/06/15 05:13:10;;;;;;;14.98;8.65;;;14.40;87.80;;;;;;4971433;28;86603;-79
2023/06/15 05:15:39;;;;;;;10.13;8.95;;;14.50;88.20;;;;;;4970048;28;87913;-80
2023/06/15 05:18:05;;;;;;;12.45;8.73;;;14.60;87.80;;;;;;4977148;28;86334;-80
2023/06/15 05:20:39;;;;;;;15.77;8.85;;;14.70;87.10;;;;;;4981157;28;85781;-81
2023/06/15 05:23:04;;;;;;;11.25;9.40;;;14.80;86.40;;;;;;4984305;28;85652;-81
2023/06/15 05:25:30;;;;;;;13.00;9.93;;;14.90;86.60;;;;;;4982985;28;89211;-79
2023/06/15 05:28:14;;;;;;;18.67;9.55;;;15.10;85.60;;;;;;4983574;28;86606;-80
2023/06/15 05:30:40;;;;;;;13.60;10.43;;;15.20;85.90;;;;;;4979427;28;85933;-80
2023/06/15 05:33:07;;;;;;;19.00;10.57;;;15.30;84.90;;;;;;4973852;28;85909;-80
2023/06/15 05:35:33;;;;;;;13.30;9.90;;;15.50;84.50;;;;;;4976811;28;86654;-79
2023/06/15 05:38:04;;;;;;;14.50;10.23;;;15.60;84.10;;;;;;4974035;28;89004;-78
2023/06/15 05:40:42;;;;;;;13.38;9.07;;;15.70;84.10;;;;;;4942991;28;88396;-78
2023/06/15 05:43:12;;;;;;;14.82;10.38;;;15.90;83.30;;;;;;4949167;28;86488;-79
2023/06/15 05:45:41;;;;;;;12.80;8.80;;;16.00;83.40;;;;;;4961234;28;87304;-79
2023/06/15 05:48:09;;;;;;;13.38;9.20;;;16.10;82.60;;;;;;4973429;28;86482;-78
2023/06/15 05:50:39;;;;;;;19.73;9.57;;;16.20;82.20;;;;;;4971761;28;86400;-79
2023/06/15 05:53:04;;;;;;;13.63;8.85;;;16.40;82.70;;;;;;4966385;28;86133;-78
2023/06/15 05:55:31;;;;;;;12.73;8.75;;;16.50;81.20;;;;;;4971115;28;90295;-77
2023/06/15 05:57:57;;;;;;;19.58;8.68;;;16.70;80.40;;;;;;4955628;28;87857;-78
2023/06/15 06:00:25;;;;;;;13.52;8.85;;;16.80;79.20;;;;;;4972222;28;86368;-78
2023/06/15 06:02:56;;;;;;;10.07;7.53;;;17.00;79.60;;;;;;4967435;28;86338;-81
2023/06/15 06:05:23;;;;;;;11.77;8.57;;;17.10;78.90;;;;;;4965565;28;88877;-78
2023/06/15 06:10:33;;;;;;;12.70;8.77;;;17.50;78.20;;;;;;5615007;23;86497;-79
2023/06/15 06:13:04;;;;;;;14.70;8.65;;;17.60;78.70;;;;;;5247164;22;87317;-80
2023/06/15 06:15:53;;;;;;;10.32;7.82;;;17.80;78.40;;;;;;4952350;28;87069;-79
2023/06/15 06:18:19;;;;;;;12.88;7.80;;;18.00;77.80;;;;;;4956468;28;87142;-78
2023/06/15 06:20:50;;;;;;;14.35;7.25;;;18.10;77.50;;;;;;4978023;28;86398;-81
2023/06/15 06:23:36;;;;;;;11.27;7.57;;;18.30;76.60;;;;;;4970532;28;85637;-80
2023/06/15 06:39:25;;;;;;;13.60;5.43;;;19.40;71.60;;;;;;5770502;22;87671;-80
2023/06/15 06:41:51;;;;;;;24.67;6.65;;;19.60;71.50;;;;;;5433098;23;86314;-82
2023/06/15 06:44:18;;;;;;;12.00;5.35;;;19.80;70.80;;;;;;5019959;22;87857;-79
2023/06/15 06:46:45;;;;;;;11.85;4.63;;;19.90;70.40;;;;;;4963685;28;90079;-81
2023/06/15 06:49:10;;;;;;;8.68;4.68;;;20.00;69.90;;;;;;4954239;28;89783;-82
2023/06/15 06:51:37;;;;;;;11.52;4.43;;;20.20;67.70;;;;;;4949109;28;85917;-83
2023/06/15 06:54:03;;;;;;;8.07;3.88;;;20.40;67.20;;;;;;4942536;28;86019;-83
2023/06/15 06:56:28;;;;;;;8.07;3.85;;;20.60;67.00;;;;;;4940274;28;87603;-83
2023/06/15 06:58:54;;;;;;;6.78;3.53;;;20.70;65.70;;;;;;4940096;28;87329;-84
2023/06/15 07:01:20;;;;;;;7.65;3.35;;;20.80;64.80;;;;;;4939331;28;86469;-84
2023/06/15 07:03:45;;;;;;;11.93;3.72;;;21.00;64.40;;;;;;4939249;28;86193;-84
2023/06/15 07:06:11;;;;;;;5.93;2.95;;;21.10;64.30;;;;;;4938058;28;87762;-85
2023/06/15 07:08:37;;;;;;;7.47;2.83;;;21.30;62.20;;;;;;4936377;28;89909;-85
2023/06/15 07:11:02;;;;;;;7.70;2.90;;;21.40;62.80;;;;;;4937765;28;86971;-86
2023/06/15 07:13:28;;;;;;;4.40;2.72;;;21.60;63.90;;;;;;4943411;28;86574;-86
2023/06/15 07:15:56;;;;;;;3.85;3.10;;;21.80;62.90;;;;;;4937209;28;91068;-87
2023/06/15 07:18:21;;;;;;;5.38;2.78;;;22.00;62.60;;;;;;4936585;28;89668;-85
2023/06/15 07:20:53;;;;;;;3.25;2.60;;;22.10;62.20;;;;;;4936547;28;86246;-86
2023/06/15 07:23:20;;;;;;;4.53;2.60;;;22.30;61.30;;;;;;4936461;28;86156;-85
2023/06/15 07:25:46;;;;;;;3.70;2.70;;;22.40;60.80;;;;;;4937476;28;89262;-86
2023/06/15 07:28:11;;;;;;;3.83;2.60;;;22.60;60.20;;;;;;4937995;28;86269;-84
2023/06/15 07:30:37;;;;;;;3.95;2.53;;;22.80;59.40;;;;;;4936040;28;86404;-86
2023/06/15 07:33:02;;;;;;;8.85;2.70;;;22.90;57.10;;;;;;4928297;28;86201;-87
2023/06/15 07:35:28;;;;;;;5.10;2.65;;;23.00;55.70;;;;;;4946464;28;90211;-87
2023/06/15 07:37:54;;;;;;;3.72;2.45;;;23.10;56.00;;;;;;4942058;28;86603;-85
2023/06/15 07:40:19;;;;;;;6.32;2.78;;;23.30;57.00;;;;;;4939215;28;86460;-88
2023/06/15 07:42:45;;;;;;;6.47;2.85;;;23.50;56.30;;;;;;4939729;28;86649;-83
2023/06/15 07:45:11;;;;;;;7.97;3.15;;;23.60;56.70;;;;;;4939759;28;89624;-85
2023/06/15 07:47:37;;;;;;;5.40;2.55;;;23.70;56.40;;;;;;4948743;28;88802;-84
2023/06/15 07:50:02;;;;;;;2.55;2.10;;;23.90;56.20;;;;;;4932142;28;86416;-85
2023/06/15 07:52:28;;;;;;;5.63;2.35;;;24.10;57.20;;;;;;4939598;28;87215;-86
2023/06/15 07:54:54;;;;;;;4.47;2.28;;;24.30;57.20;;;;;;4939156;28;90448;-85
2023/06/15 07:57:20;;;;;;;4.20;2.58;;;24.50;53.30;;;;;;4945537;28;90351;-86
2023/06/15 07:59:45;;;;;;;3.65;2.15;;;24.60;54.20;;;;;;4939706;28;87585;-87
2023/06/15 08:02:11;;;;;;;7.63;2.50;;;24.80;53.50;;;;;;4941684;28;86403;-86
2023/06/15 08:04:37;;;;;;;6.45;2.30;;;24.90;53.90;;;;;;4940286;28;89458;-87
2023/06/15 08:07:03;;;;;;;2.50;2.10;;;25.10;52.50;;;;;;4939246;28;89241;-87
2023/06/15 08:09:28;;;;;;;6.50;2.45;;;25.20;51.10;;;;;;4955914;28;86448;-86
2023/06/15 08:11:54;;;;;;;5.47;2.50;;;25.30;53.60;;;;;;4939380;28;90255;-85
2023/06/15 08:14:20;;;;;;;4.43;2.10;;;25.50;51.60;;;;;;4939224;28;89883;-87
2023/06/15 08:16:47;;;;;;;3.25;2.50;;;25.60;52.10;;;;;;4940298;28;89538;-86
2023/06/15 08:19:12;;;;;;;2.97;1.85;;;25.70;51.90;;;;;;4939122;28;86082;-86
2023/06/15 08:21:41;;;;;;;2.53;1.85;;;26.00;51.10;;;;;;4938512;28;86136;-87
2023/06/15 08:24:07;;;;;;;4.07;2.30;;;26.30;50.20;;;;;;4939065;28;90013;-87
2023/06/15 08:26:33;;;;;;;4.43;2.00;;;26.60;50.10;;;;;;4938857;28;88954;-87
2023/06/15 08:28:58;;;;;;;9.82;2.03;;;26.70;50.20;;;;;;4940269;28;85829;-89
2023/06/15 08:31:24;;;;;;;2.85;1.95;;;26.90;48.50;;;;;;4919918;28;86521;-77
2023/06/15 08:33:50;;;;;;;5.60;1.88;;;27.00;47.60;;;;;;4937364;28;90614;-78
2023/06/15 08:36:15;;;;;;;4.90;1.92;;;27.00;47.30;;;;;;4938121;28;87408;-77
2023/06/15 08:38:41;;;;;;;6.95;2.30;;;27.20;47.10;;;;;;4938219;28;86695;-77
2023/06/15 08:41:07;;;;;;;3.17;2.17;;;27.40;47.90;;;;;;4939898;28;86478;-79
2023/06/15 08:43:33;;;;;;;3.17;1.70;;;27.60;47.70;;;;;;4939623;28;87366;-76
2023/06/15 08:45:59;;;;;;;6.35;2.00;;;27.80;46.00;;;;;;4937614;28;86922;-77
2023/06/15 08:48:27;;;;;;;4.80;1.85;;;27.90;46.50;;;;;;4939196;28;86617;-80
2023/06/15 08:50:54;;;;;;;4.20;1.77;;;28.10;44.80;;;;;;4938877;28;86191;-81
2023/06/15 08:53:22;;;;;;;3.03;1.45;;;28.30;46.30;;;;;;4938226;28;90873;-81
2023/06/15 08:55:48;;;;;;;4.63;1.80;;;28.50;45.60;;;;;;4940231;28;86521;-84
2023/06/15 08:58:14;;;;;;;2.47;1.63;;;28.70;43.30;;;;;;4930271;28;86635;-85
2023/06/15 09:00:40;;;;;;;2.92;1.90;;;28.80;44.90;;;;;;4937879;28;86892;-83
2023/06/15 09:03:09;;;;;;;4.45;1.65;;;29.00;42.30;;;;;;4937450;28;88996;-84
2023/06/15 09:05:35;;;;;;;3.97;1.90;;;29.00;45.30;;;;;;4939899;28;88018;-86
2023/06/15 09:08:03;;;;;;;6.07;1.80;;;29.20;44.30;;;;;;4936532;28;86073;-85
2023/06/15 09:10:29;;;;;;;3.67;1.75;;;29.30;42.40;;;;;;4930900;28;86944;-84
2023/06/15 09:12:57;;;;;;;3.50;2.05;;;29.40;43.30;;;;;;4936838;28;89338;-86
2023/06/15 09:15:27;;;;;;;5.43;1.98;;;29.50;42.50;;;;;;4937608;28;89826;-84
2023/06/15 09:17:59;;;;;;;3.58;1.70;;;29.50;41.40;;;;;;4937702;28;87290;-84
2023/06/15 09:20:38;;;;;;;4.40;1.50;;;29.50;41.40;;;;;;4940123;28;85864;-85
2023/06/15 09:23:06;;;;;;;3.30;1.50;;;29.60;42.00;;;;;;4939013;28;86169;-85
2023/06/15 09:25:33;;;;;;;4.00;1.98;;;29.90;42.30;;;;;;4937810;28;87188;-85
2023/06/15 09:28:04;;;;;;;2.83;1.60;;;29.90;40.70;;;;;;4938979;28;86314;-85
2023/06/15 09:30:37;;;;;;;4.07;1.90;;;30.00;41.40;;;;;;4938946;28;85938;-84
2023/06/15 09:33:14;;;;;;;4.13;1.83;;;30.10;40.90;;;;;;4937564;28;89703;-82
2023/06/15 09:35:59;;;;;;;5.07;1.73;;;30.40;39.50;;;;;;4939052;28;86582;-81
2023/06/15 09:38:32;;;;;;;3.10;1.77;;;30.60;41.00;;;;;;4938690;28;88447;-84
2023/06/15 09:41:04;;;;;;;8.90;2.15;;;30.60;39.10;;;;;;4938636;28;86078;-81
2023/06/15 09:43:34;;;;;;;4.18;1.80;;;30.60;38.50;;;;;;4937755;28;89973;-82
2023/06/15 09:46:00;;;;;;;3.47;2.00;;;30.50;37.00;;;;;;4938500;28;87142;-82
2023/06/15 09:48:27;;;;;;;3.92;1.90;;;30.50;39.60;;;;;;4936920;28;86342;-83
2023/06/15 09:50:53;;;;;;;4.40;1.92;;;30.60;37.70;;;;;;4938192;28;86229;-82
2023/06/15 09:53:19;;;;;;;5.20;2.00;;;30.70;38.50;;;;;;4937455;28;89446;-82
2023/06/15 09:55:46;;;;;;;2.90;1.92;;;31.10;38.70;;;;;;4937118;28;87301;-81
2023/06/15 09:58:12;;;;;;;6.03;1.80;;;31.40;38.30;;;;;;4928132;28;85819;-81
2023/06/15 10:00:39;;;;;;;3.13;2.05;;;31.50;37.90;;;;;;4938757;28;85986;-81
2023/06/15 10:03:08;;;;;;;3.22;2.05;;;31.60;38.30;;;;;;4938146;28;86928;-81
2023/06/15 10:05:40;;;;;;;6.88;2.03;;;31.90;38.10;;;;;;4938507;28;86688;-83
2023/06/15 10:08:08;;;;;;;6.00;2.00;;;32.00;38.00;;;;;;4937291;28;88838;-81
2023/06/15 10:10:37;;;;;;;3.00;1.80;;;32.10;37.50;;;;;;4938959;28;85975;-82
2023/06/15 10:13:05;;;;;;;4.35;1.98;;;32.20;37.50;;;;;;4938165;28;87830;-82
2023/06/15 10:15:33;;;;;;;2.40;1.90;;;32.20;37.70;;;;;;4936514;28;87181;-85
2023/06/15 10:18:01;;;;;;;6.32;1.98;;;32.30;37.90;;;;;;4929310;28;86474;-82
2023/06/15 10:20:29;;;;;;;8.80;1.95;;;32.40;37.50;;;;;;4936395;28;86053;-82
2023/06/15 10:23:02;;;;;;;6.65;2.30;;;32.70;37.30;;;;;;4944239;28;90298;-82
2023/06/15 10:25:30;;;;;;;5.80;2.15;;;32.80;36.20;;;;;;4938182;28;87549;-80
2023/06/15 10:27:56;;;;;;;8.63;1.75;;;32.90;36.70;;;;;;4937162;28;85879;-80
2023/06/15 10:30:27;;;;;;;4.75;2.00;;;32.90;36.30;;;;;;4938789;28;86457;-81
2023/06/15 10:33:19;;;;;;;2.83;2.10;;;33.00;34.90;;;;;;4938573;28;87319;-81
2023/06/15 10:36:08;;;;;;;3.15;2.10;;;32.90;35.50;;;;;;4938326;28;86110;-78
2023/06/15 10:38:54;;;;;;;5.07;2.13;;;33.00;35.80;;;;;;4938751;28;86312;-80
2023/06/15 10:41:20;;;;;;;6.25;2.28;;;32.80;33.70;;;;;;4937407;28;86156;-80
2023/06/15 10:44:03;;;;;;;4.20;1.98;;;32.80;34.70;;;;;;4937611;28;87037;-80
2023/06/15 10:46:31;;;;;;;3.10;2.30;;;32.90;34.40;;;;;;4938014;28;88792;-80
2023/06/15 10:49:07;;;;;;;5.80;2.05;;;33.10;33.80;;;;;;4937301;28;86858;-80
2023/06/15 10:51:35;;;;;;;3.13;1.80;;;33.30;34.90;;;;;;4938578;28;86106;-80
2023/06/15 10:54:03;;;;;;;2.53;1.52;;;33.50;35.60;;;;;;4936069;28;90448;-81
2023/06/15 10:56:29;;;;;;;4.00;2.00;;;33.90;35.10;;;;;;4938573;28;86841;-80
2023/06/15 10:59:00;;;;;;;4.28;1.77;;;34.20;33.40;;;;;;4938023;28;86335;-80
2023/06/15 11:01:31;;;;;;;3.53;1.90;;;34.30;34.60;;;;;;4928187;28;86450;-80
2023/06/15 11:03:58;;;;;;;2.55;1.85;;;34.50;33.40;;;;;;4938624;28;87338;-80
2023/06/15 11:06:31;;;;;;;4.25;1.60;;;34.50;33.00;;;;;;4937049;28;86492;-80
2023/06/15 11:09:07;;;;;;;4.78;1.95;;;34.70;34.10;;;;;;4938509;28;86133;-80
2023/06/15 11:11:35;;;;;;;4.47;2.00;;;34.90;33.80;;;;;;4941937;28;86215;-86
2023/06/15 11:14:02;;;;;;;4.45;1.90;;;35.10;33.80;;;;;;4941910;28;87631;-87
2023/06/15 11:16:38;;;;;;;4.78;1.80;;;35.40;33.70;;;;;;4940402;28;87339;-88
2023/06/15 11:19:12;;;;;;;7.43;2.00;;;35.60;32.80;;;;;;4941789;28;86401;-85
2023/06/15 11:21:50;;;;;;;4.18;2.13;;;35.80;32.90;;;;;;4940562;28;86311;-87
2023/06/15 11:24:19;;;;;;;3.30;2.05;;;35.70;33.20;;;;;;4941767;28;87514;-87
2023/06/15 11:26:48;;;;;;;5.07;1.92;;;35.70;33.20;;;;;;4940587;28;88603;-86
2023/06/15 11:29:22;;;;;;;5.28;2.20;;;36.10;33.30;;;;;;4942686;28;86872;-87
2023/06/15 11:31:49;;;;;;;9.85;2.55;;;36.00;31.80;;;;;;4940625;28;86047;-86
2023/06/15 11:34:14;;;;;;;4.22;2.25;;;35.90;32.80;;;;;;4940406;28;90458;-88
2023/06/15 11:36:40;;;;;;;3.15;2.15;;;35.90;33.40;;;;;;4941617;28;87087;-84
2023/06/15 11:39:06;;;;;;;8.18;2.10;;;36.10;32.20;;;;;;4940773;28;86062;-86
2023/06/15 11:41:31;;;;;;;6.28;2.10;;;36.40;30.50;;;;;;4942782;28;86845;-87
2023/06/15 11:43:57;;;;;;;3.90;1.98;;;36.20;31.80;;;;;;4939706;28;90527;-87
2023/06/15 11:46:25;;;;;;;4.78;1.90;;;35.70;31.70;;;;;;4940405;28;88475;-87
2023/06/15 11:48:58;;;;;;;4.90;2.30;;;36.00;34.00;;;;;;4940017;28;86957;-85
2023/06/15 11:51:25;;;;;;;4.68;2.13;;;36.40;32.00;;;;;;4940561;28;85901;-87
2023/06/15 11:53:53;;;;;;;8.63;1.88;;;36.70;31.40;;;;;;4939599;28;90587;-87
2023/06/15 11:56:20;;;;;;;2.83;1.90;;;36.50;30.50;;;;;;4940970;28;90513;-85
2023/06/15 11:58:47;;;;;;;5.60;1.70;;;36.70;31.60;;;;;;4931761;28;86260;-87
2023/06/15 12:01:15;;;;;;;5.97;2.00;;;37.10;29.60;;;;;;4939024;28;85996;-83
2023/06/15 12:03:49;;;;;;;7.65;2.20;;;37.40;31.90;;;;;;4931558;28;90740;-81
2023/06/15 12:06:19;;;;;;;4.97;2.00;;;37.80;31.00;;;;;;4938767;28;88497;-81
2023/06/15 12:08:46;;;;;;;5.30;2.15;;;37.80;30.80;;;;;;4940228;28;86059;-80
2023/06/15 12:11:12;;;;;;;2.55;1.85;;;37.80;30.30;;;;;;4941131;28;86370;-81
2023/06/15 12:13:39;;;;;;;5.97;2.00;;;37.70;30.00;;;;;;4940400;28;87722;-81
2023/06/15 12:16:07;;;;;;;4.30;1.95;;;37.60;30.40;;;;;;4939770;28;86502;-79
2023/06/15 12:18:32;;;;;;;3.92;1.92;;;37.80;31.70;;;;;;4937802;28;86299;-80
2023/06/15 12:21:02;;;;;;;6.05;1.90;;;38.20;30.20;;;;;;4939980;28;86506;-80
2023/06/15 12:23:30;;;;;;;4.65;2.45;;;38.50;30.50;;;;;;4940488;28;88667;-80
2023/06/15 12:25:56;;;;;;;5.22;2.10;;;38.20;29.60;;;;;;4939975;28;86529;-80
2023/06/15 12:28:24;;;;;;;3.25;1.70;;;38.30;28.80;;;;;;4938854;28;86575;-80
2023/06/15 12:30:50;;;;;;;23.08;3.30;;;38.60;29.00;;;;;;4939273;28;86434;-80
2023/06/15 12:33:39;;;;;;;25.27;3.58;;;39.00;29.80;;;;;;4939573;28;86983;-80
2023/06/15 12:36:12;;;;;;;10.63;3.00;;;39.10;29.30;;;;;;4939550;28;86521;-80
2023/06/15 12:38:38;;;;;;;4.43;2.00;;;38.20;29.70;;;;;;4940510;28;86078;-80
2023/06/15 12:41:14;;;;;;;3.97;2.05;;;37.30;30.20;;;;;;4938193;28;86585;-81
2023/06/15 12:43:40;;;;;;;3.97;1.83;;;36.80;30.00;;;;;;4940050;28;87383;-83
2023/06/15 12:46:06;;;;;;;4.43;2.03;;;36.20;30.90;;;;;;4940703;28;86508;-88
2023/06/15 12:48:31;;;;;;;3.03;2.47;;;35.60;30.90;;;;;;4940824;28;86297;-85
2023/06/15 12:50:58;;;;;;;5.63;2.20;;;35.20;31.70;;;;;;4940598;28;86152;-85
2023/06/15 12:53:24;;;;;;;4.40;1.90;;;35.30;31.30;;;;;;4939330;28;90859;-86
2023/06/15 12:55:49;;;;;;;4.68;1.73;;;35.80;30.30;;;;;;4938645;28;88704;-86
2023/06/15 12:58:16;;;;;;;4.03;2.20;;;36.30;30.80;;;;;;4940531;28;86241;-86
2023/06/15 13:00:42;;;;;;;2.55;2.20;;;36.60;28.70;;;;;;4945356;28;86491;-87
2023/06/15 13:03:09;;;;;;;9.07;2.40;;;36.70;29.20;;;;;;4939616;28;86934;-80
2023/06/15 13:05:35;;;;;;;5.22;2.35;;;37.10;29.20;;;;;;4938895;28;86344;-80
2023/06/15 13:08:02;;;;;;;4.72;2.30;;;37.50;29.30;;;;;;4938166;28;88267;-80